Time;durP1;ratioP1;P1;durP2;ratioP2;P2;SDS_P1;SDS_P2;PMS_P1;PMS_P2;Temp;Humidity;BMP_temperature;BMP_pressure;BME280_temperature;BME280_humidity;BME280_pressure;Samples;Min_cycle;Max_cycle;Signal;HPM_P1;HPM_P2
2022/12/02 00:00:42;;;;;;;;;;;13.40;87.10;;;;;;4590928;19;19915;-21
2022/12/02 00:02:32;;;;;;;;;;;13.40;87.10;;;;;;4591135;19;20380;-24
2022/12/02 00:04:15;;;;;;;;;;;13.40;87.30;;;;;;4591726;19;19911;-22
2022/12/02 00:05:48;;;;;;;;;;;13.40;87.10;;;;;;4591481;19;19923;-22
2022/12/02 00:07:20;;;;;;;;;;;13.40;87.20;;;;;;4591631;19;19949;-23
2022/12/02 00:08:51;;;;;;;;;;;13.40;87.20;;;;;;4591051;19;19919;-20
2022/12/02 00:10:22;;;;;;;;;;;13.40;87.20;;;;;;4590811;19;19922;-21
2022/12/02 00:11:55;;;;;;;;;;;13.40;87.30;;;;;;4591662;19;19933;-20
2022/12/02 00:13:40;;;;;;;;;;;13.40;87.30;;;;;;4591876;19;19923;-21
2022/12/02 00:15:29;;;;;;;;;;;13.40;87.50;;;;;;4590855;19;19922;-21
2022/12/02 00:17:00;;;;;;;;;;;13.40;87.70;;;;;;4591658;19;19974;-21
2022/12/02 00:18:31;;;;;;;;;;;13.40;87.50;;;;;;4592028;19;19956;-23
2022/12/02 00:20:03;;;;;;;;;;;13.40;87.70;;;;;;4591807;19;19933;-21
2022/12/02 00:21:36;;;;;;;;;;;13.40;87.60;;;;;;4591547;19;19926;-20
2022/12/02 00:23:07;;;;;;;;;;;13.40;87.60;;;;;;4591768;19;19940;-22
2022/12/02 00:24:38;;;;;;;;;;;13.40;88.00;;;;;;4591041;19;19914;-21
2022/12/02 00:26:09;;;;;;;;;;;13.40;88.00;;;;;;4591362;19;19922;-21
2022/12/02 00:27:41;;;;;;;;;;;13.40;88.20;;;;;;4591331;19;20036;-24
2022/12/02 00:29:13;;;;;;;;;;;13.40;88.20;;;;;;4591502;19;19919;-23
2022/12/02 00:30:44;;;;;;;;;;;13.40;88.10;;;;;;4591974;19;20321;-21
2022/12/02 00:32:14;;;;;;;;;;;13.40;87.70;;;;;;4591455;19;20238;-21
2022/12/02 00:33:47;;;;;;;;;;;13.40;87.60;;;;;;4591384;19;19914;-21
2022/12/02 00:35:18;;;;;;;;;;;13.40;87.60;;;;;;4591651;19;19922;-21
2022/12/02 00:36:49;;;;;;;;;;;13.40;87.70;;;;;;4591771;19;19986;-22
2022/12/02 00:38:20;;;;;;;;;;;13.40;87.70;;;;;;4591011;19;19923;-24
2022/12/02 00:39:51;;;;;;;;;;;13.40;87.70;;;;;;4591279;19;19928;-22
2022/12/02 00:41:22;;;;;;;;;;;13.40;87.50;;;;;;4591603;19;19915;-21
2022/12/02 00:42:53;;;;;;;;;;;13.40;87.70;;;;;;4591360;19;19930;-21
2022/12/02 00:46:30;;;;;;;;;;;13.30;87.60;;;;;;4588984;19;20370;-21
2022/12/02 00:48:02;;;;;;;;;;;13.30;87.40;;;;;;4588731;19;20011;-21
2022/12/02 00:49:33;;;;;;;;;;;13.30;87.50;;;;;;4589266;19;19918;-22
2022/12/02 00:51:04;;;;;;;;;;;13.30;87.50;;;;;;4589066;19;20315;-21
2022/12/02 00:52:35;;;;;;;;;;;13.30;87.40;;;;;;4588976;19;19922;-22
2022/12/02 00:54:06;;;;;;;;;;;13.30;87.20;;;;;;4588426;19;19907;-22
2022/12/02 00:55:37;;;;;;;;;;;13.30;87.00;;;;;;4589179;19;19915;-21
2022/12/02 00:57:08;;;;;;;;;;;13.30;86.90;;;;;;4588791;19;19915;-23
2022/12/02 00:58:39;;;;;;;;;;;13.30;87.10;;;;;;4589004;19;19926;-20
2022/12/02 01:00:11;;;;;;;;;;;13.30;87.10;;;;;;4588792;19;19973;-20
2022/12/02 01:01:43;;;;;;;;;;;13.30;87.00;;;;;;4588882;19;19939;-21
2022/12/02 01:03:14;;;;;;;;;;;13.30;86.90;;;;;;4588404;19;19911;-21
2022/12/02 01:04:45;;;;;;;;;;;13.30;86.90;;;;;;4588586;19;20380;-21
2022/12/02 01:06:17;;;;;;;;;;;13.30;86.80;;;;;;4589022;19;19919;-21
2022/12/02 01:07:48;;;;;;;;;;;13.30;86.50;;;;;;4588521;19;19919;-21
2022/12/02 01:09:19;;;;;;;;;;;13.30;86.30;;;;;;4588806;19;19922;-21
2022/12/02 01:10:54;;;;;;;;;;;13.30;86.40;;;;;;4588568;19;19922;-21
2022/12/02 01:12:26;;;;;;;;;;;13.30;86.20;;;;;;4588458;19;19918;-22
2022/12/02 01:13:57;;;;;;;;;;;13.30;86.00;;;;;;4588581;19;20362;-21
2022/12/02 01:15:28;;;;;;;;;;;13.30;85.90;;;;;;4588545;19;19918;-20
2022/12/02 01:16:59;;;;;;;;;;;13.30;85.80;;;;;;4588537;19;19929;-21
2022/12/02 01:18:30;;;;;;;;;;;13.30;85.70;;;;;;4589000;19;19922;-24
2022/12/02 01:20:02;;;;;;;;;;;13.30;85.50;;;;;;4588520;19;19923;-21
2022/12/02 01:21:33;;;;;;;;;;;13.30;85.30;;;;;;4588197;19;20334;-21
2022/12/02 01:23:04;;;;;;;;;;;13.30;85.20;;;;;;4589615;19;19915;-22
2022/12/02 01:24:35;;;;;;;;;;;13.30;85.70;;;;;;4590565;19;19987;-21
2022/12/02 01:26:08;;;;;;;;;;;13.30;85.30;;;;;;4590554;19;19925;-21
2022/12/02 01:27:39;;;;;;;;;;;13.30;85.20;;;;;;4590397;19;19914;-21
2022/12/02 01:29:11;;;;;;;;;;;13.30;85.10;;;;;;4589410;19;19915;-20
2022/12/02 01:30:42;;;;;;;;;;;13.30;85.10;;;;;;4590211;19;19911;-20
2022/12/02 01:32:13;;;;;;;;;;;13.30;85.20;;;;;;4590145;19;19935;-21
2022/12/02 01:33:45;;;;;;;;;;;13.30;85.40;;;;;;4590475;19;19923;-23
2022/12/02 01:35:16;;;;;;;;;;;13.30;85.10;;;;;;4590650;19;19914;-22
2022/12/02 01:36:47;;;;;;;;;;;13.30;85.20;;;;;;4590307;19;19919;-22
2022/12/02 01:38:18;;;;;;;;;;;13.30;85.40;;;;;;4589514;19;19922;-21
2022/12/02 01:39:50;;;;;;;;;;;13.30;85.60;;;;;;4590516;19;19974;-20
2022/12/02 01:41:21;;;;;;;;;;;13.30;85.50;;;;;;4590330;19;19918;-22
2022/12/02 01:42:52;;;;;;;;;;;13.30;85.40;;;;;;4590045;19;19926;-21
2022/12/02 01:44:23;;;;;;;;;;;13.30;85.40;;;;;;4590572;19;19915;-21
2022/12/02 01:45:54;;;;;;;;;;;13.30;85.20;;;;;;4589372;19;19975;-21
2022/12/02 01:47:26;;;;;;;;;;;13.30;85.00;;;;;;4589696;19;20356;-21
2022/12/02 01:48:57;;;;;;;;;;;13.30;85.00;;;;;;4589124;19;19926;-21
2022/12/02 01:50:28;;;;;;;;;;;13.30;85.00;;;;;;4589169;19;19974;-21
2022/12/02 01:52:00;;;;;;;;;;;13.30;84.90;;;;;;4590021;19;19935;-20
2022/12/02 01:53:31;;;;;;;;;;;13.30;85.00;;;;;;4589576;19;20266;-22
2022/12/02 01:55:02;;;;;;;;;;;13.30;84.90;;;;;;4589820;19;19962;-20
2022/12/02 01:56:34;;;;;;;;;;;13.30;84.60;;;;;;4594702;19;19921;-21
2022/12/02 01:58:05;;;;;;;;;;;13.30;84.30;;;;;;4594781;19;19922;-23
2022/12/02 01:59:36;;;;;;;;;;;13.20;84.10;;;;;;4594567;19;20652;-20
2022/12/02 02:01:23;;;;;;;;;;;13.30;84.00;;;;;;4593445;19;19919;-21
2022/12/02 02:02:54;;;;;;;;;;;13.20;84.10;;;;;;4594655;19;19919;-21
2022/12/02 02:04:26;;;;;;;;;;;13.20;84.10;;;;;;4595087;19;19919;-21
2022/12/02 02:05:57;;;;;;;;;;;13.20;84.00;;;;;;4593407;19;20301;-20
2022/12/02 02:07:28;;;;;;;;;;;13.20;84.10;;;;;;4594077;19;19919;-21
2022/12/02 02:08:59;;;;;;;;;;;13.20;83.90;;;;;;4592854;19;20326;-20
2022/12/02 02:10:31;;;;;;;;;;;13.20;83.70;;;;;;4594868;19;19919;-21
2022/12/02 02:12:02;;;;;;;;;;;13.20;83.60;;;;;;4594349;19;19941;-25
2022/12/02 02:13:33;;;;;;;;;;;13.20;83.60;;;;;;4594613;19;19922;-21
2022/12/02 02:15:06;;;;;;;;;;;13.30;83.70;;;;;;4594536;19;19911;-20
2022/12/02 02:16:37;;;;;;;;;;;13.20;83.60;;;;;;4594112;19;19922;-21
2022/12/02 02:18:08;;;;;;;;;;;13.20;83.70;;;;;;4591738;19;19918;-21
2022/12/02 02:19:40;;;;;;;;;;;13.20;83.90;;;;;;4593515;19;19919;-21
2022/12/02 02:21:22;;;;;;;;;;;13.20;83.70;;;;;;4594664;19;19957;-21
2022/12/02 02:23:04;;;;;;;;;;;13.20;84.30;;;;;;4593521;19;19915;-21
2022/12/02 02:24:36;;;;;;;;;;;13.20;83.90;;;;;;4593973;19;19918;-21
2022/12/02 02:26:07;;;;;;;;;;;13.20;83.80;;;;;;4594304;19;19917;-21
2022/12/02 02:27:38;;;;;;;;;;;13.20;83.70;;;;;;4594031;19;19919;-21
2022/12/02 02:29:11;;;;;;;;;;;13.20;83.70;;;;;;4592438;19;19918;-22
2022/12/02 02:30:42;;;;;;;;;;;13.20;83.70;;;;;;4592772;19;19911;-21
2022/12/02 02:32:14;;;;;;;;;;;13.20;83.60;;;;;;4593525;19;19923;-21
2022/12/02 02:33:45;;;;;;;;;;;13.20;83.40;;;;;;4594588;19;19928;-20
2022/12/02 02:35:16;;;;;;;;;;;13.20;83.50;;;;;;4592888;19;19919;-20
2022/12/02 02:36:47;;;;;;;;;;;13.20;83.60;;;;;;4593268;19;19918;-21
2022/12/02 02:38:19;;;;;;;;;;;13.20;83.70;;;;;;4593072;19;19923;-21
2022/12/02 02:39:51;;;;;;;;;;;13.20;83.70;;;;;;4594251;19;19918;-23
2022/12/02 02:41:22;;;;;;;;;;;13.20;83.90;;;;;;4592737;19;19915;-22
2022/12/02 02:42:54;;;;;;;;;;;13.20;83.70;;;;;;4593349;19;20335;-20
2022/12/02 02:44:25;;;;;;;;;;;13.20;83.60;;;;;;4593645;19;20331;-23
2022/12/02 02:45:56;;;;;;;;;;;13.20;83.40;;;;;;4593065;19;19996;-21
2022/12/02 02:47:28;;;;;;;;;;;13.20;83.40;;;;;;4593585;19;19919;-21
2022/12/02 02:48:59;;;;;;;;;;;13.20;83.40;;;;;;4592214;19;19934;-21
2022/12/02 02:50:30;;;;;;;;;;;13.20;83.40;;;;;;4593735;19;20264;-23
2022/12/02 02:52:01;;;;;;;;;;;13.20;83.50;;;;;;4593405;19;20382;-22
2022/12/02 02:53:32;;;;;;;;;;;13.20;83.50;;;;;;4593363;19;19918;-21
2022/12/02 02:55:04;;;;;;;;;;;13.20;83.50;;;;;;4593503;19;19938;-22
2022/12/02 02:56:35;;;;;;;;;;;13.20;83.40;;;;;;4593745;19;19992;-24
2022/12/02 02:58:25;;;;;;;;;;;13.20;83.50;;;;;;4593347;19;20330;-21
2022/12/02 02:59:58;;;;;;;;;;;13.20;83.30;;;;;;4593530;19;19919;-20
2022/12/02 03:01:33;;;;;;;;;;;13.20;83.40;;;;;;4593621;19;19975;-21
2022/12/02 03:03:04;;;;;;;;;;;13.20;83.50;;;;;;4593776;19;19915;-21
2022/12/02 03:04:35;;;;;;;;;;;13.20;83.70;;;;;;4593405;19;20341;-20
2022/12/02 03:06:06;;;;;;;;;;;13.20;83.50;;;;;;4591953;19;19928;-24
2022/12/02 03:07:37;;;;;;;;;;;13.10;83.40;;;;;;4590248;19;19911;-22
2022/12/02 03:09:09;;;;;;;;;;;13.20;83.20;;;;;;4591826;19;19929;-20
2022/12/02 03:10:41;;;;;;;;;;;13.20;83.50;;;;;;4593286;19;19919;-21
2022/12/02 03:12:12;;;;;;;;;;;13.20;83.70;;;;;;4590912;19;19923;-21
2022/12/02 03:13:43;;;;;;;;;;;13.20;83.50;;;;;;4591620;19;19919;-22
2022/12/02 03:15:14;;;;;;;;;;;13.20;83.30;;;;;;4592886;19;19919;-21
2022/12/02 03:16:45;;;;;;;;;;;13.10;83.30;;;;;;4593099;19;19918;-21
2022/12/02 03:18:17;;;;;;;;;;;13.10;83.30;;;;;;4592240;19;19915;-21
2022/12/02 03:19:49;;;;;;;;;;;13.10;83.00;;;;;;4592376;19;20004;-21
2022/12/02 03:21:20;;;;;;;;;;;13.10;83.20;;;;;;4592793;19;19922;-21
2022/12/02 03:22:51;;;;;;;;;;;13.10;82.80;;;;;;4591720;19;19915;-21
2022/12/02 03:24:23;;;;;;;;;;;13.10;82.80;;;;;;4592858;19;19922;-21
2022/12/02 03:25:53;;;;;;;;;;;13.10;82.90;;;;;;4592949;19;19978;-21
2022/12/02 03:27:24;;;;;;;;;;;13.10;82.70;;;;;;4592728;19;19922;-20
2022/12/02 03:28:56;;;;;;;;;;;13.10;82.70;;;;;;4590590;19;19919;-21
2022/12/02 03:30:27;;;;;;;;;;;13.10;82.60;;;;;;4591989;19;20265;-21
2022/12/02 03:31:58;;;;;;;;;;;13.10;82.50;;;;;;4592794;19;19918;-21
2022/12/02 03:33:29;;;;;;;;;;;13.10;82.30;;;;;;4591582;19;20007;-22
2022/12/02 03:35:00;;;;;;;;;;;13.10;82.70;;;;;;4592324;19;19927;-21
2022/12/02 03:36:31;;;;;;;;;;;13.20;82.70;;;;;;4591463;19;19918;-21
2022/12/02 03:38:02;;;;;;;;;;;13.10;82.50;;;;;;4592093;19;20000;-20
2022/12/02 03:39:33;;;;;;;;;;;13.10;82.40;;;;;;4592618;19;19955;-21
2022/12/02 03:41:04;;;;;;;;;;;13.10;82.40;;;;;;4592723;19;19919;-21
2022/12/02 03:42:36;;;;;;;;;;;13.10;82.50;;;;;;4590520;19;19929;-21
2022/12/02 03:44:07;;;;;;;;;;;13.10;82.30;;;;;;4591703;19;19929;-21
2022/12/02 03:45:38;;;;;;;;;;;13.10;82.20;;;;;;4591371;19;19915;-21
2022/12/02 03:47:10;;;;;;;;;;;13.10;82.00;;;;;;4591315;19;19926;-22
2022/12/02 03:48:41;;;;;;;;;;;13.10;82.20;;;;;;4591637;19;20242;-20
2022/12/02 03:50:12;;;;;;;;;;;13.10;82.20;;;;;;4592536;19;19939;-21
2022/12/02 03:51:44;;;;;;;;;;;13.10;82.10;;;;;;4591268;19;19988;-21
2022/12/02 03:53:14;;;;;;;;;;;13.10;82.00;;;;;;4591069;19;19926;-21
2022/12/02 03:54:45;;;;;;;;;;;13.10;81.80;;;;;;4590143;19;19927;-21
2022/12/02 03:56:18;;;;;;;;;;;13.10;81.90;;;;;;4591897;19;19943;-20
2022/12/02 03:57:49;;;;;;;;;;;13.10;81.90;;;;;;4591145;19;19918;-22
2022/12/02 03:59:20;;;;;;;;;;;13.10;81.90;;;;;;4591813;19;19982;-22
2022/12/02 04:00:52;;;;;;;;;;;13.10;81.90;;;;;;4591195;19;19935;-21
2022/12/02 04:02:26;;;;;;;;;;;13.20;81.70;;;;;;4591911;19;19915;-22
2022/12/02 04:03:57;;;;;;;;;;;13.10;81.80;;;;;;4592343;19;19919;-21
2022/12/02 04:05:29;;;;;;;;;;;13.10;81.70;;;;;;4592074;19;19926;-22
2022/12/02 04:07:00;;;;;;;;;;;13.10;81.70;;;;;;4591993;19;20399;-21
2022/12/02 04:08:31;;;;;;;;;;;13.10;81.80;;;;;;4591500;19;19927;-21
2022/12/02 04:10:03;;;;;;;;;;;13.10;81.70;;;;;;4591892;19;19922;-21
2022/12/02 04:11:34;;;;;;;;;;;13.10;81.60;;;;;;4592360;19;19911;-23
2022/12/02 04:13:05;;;;;;;;;;;13.10;81.80;;;;;;4591899;19;19939;-21
2022/12/02 04:14:36;;;;;;;;;;;13.10;81.90;;;;;;4592029;19;19934;-23
2022/12/02 04:16:08;;;;;;;;;;;13.10;81.90;;;;;;4591979;19;19914;-20
2022/12/02 04:17:40;;;;;;;;;;;13.10;81.70;;;;;;4591764;19;20270;-21
2022/12/02 04:19:12;;;;;;;;;;;13.10;81.80;;;;;;4592200;19;19911;-22
2022/12/02 04:20:43;;;;;;;;;;;13.10;81.80;;;;;;4592079;19;19919;-20
2022/12/02 04:22:14;;;;;;;;;;;13.10;81.90;;;;;;4591680;19;19933;-21
2022/12/02 04:23:45;;;;;;;;;;;13.10;82.00;;;;;;4591801;19;19919;-22
2022/12/02 04:25:16;;;;;;;;;;;13.10;81.60;;;;;;4590393;19;19955;-21
2022/12/02 04:26:47;;;;;;;;;;;13.10;81.40;;;;;;4591233;19;19931;-20
2022/12/02 04:28:18;;;;;;;;;;;13.10;81.40;;;;;;4591360;19;19995;-22
2022/12/02 04:29:49;;;;;;;;;;;13.10;81.50;;;;;;4591558;19;20000;-21
2022/12/02 04:31:20;;;;;;;;;;;13.10;81.60;;;;;;4591792;19;19923;-21
2022/12/02 04:32:52;;;;;;;;;;;13.10;81.50;;;;;;4591759;19;19919;-20
2022/12/02 04:34:24;;;;;;;;;;;13.10;81.50;;;;;;4591998;19;19926;-21
2022/12/02 04:35:55;;;;;;;;;;;13.10;81.60;;;;;;4589082;19;19921;-21
2022/12/02 04:37:26;;;;;;;;;;;13.10;81.70;;;;;;4590575;19;19936;-22
2022/12/02 04:38:57;;;;;;;;;;;13.10;81.60;;;;;;4590749;19;20325;-23
2022/12/02 04:40:31;;;;;;;;;;;13.10;81.50;;;;;;4591505;19;19919;-22
2022/12/02 04:42:02;;;;;;;;;;;13.10;81.40;;;;;;4591548;19;19933;-21
2022/12/02 04:43:33;;;;;;;;;;;13.20;81.40;;;;;;4590266;19;20385;-24
2022/12/02 04:45:04;;;;;;;;;;;13.30;81.20;;;;;;4590963;19;20362;-22
2022/12/02 04:46:36;;;;;;;;;;;13.40;81.10;;;;;;4591422;19;19939;-21
2022/12/02 04:48:07;;;;;;;;;;;13.40;80.90;;;;;;4589884;19;19911;-21
2022/12/02 04:49:38;;;;;;;;;;;13.50;80.80;;;;;;4590838;19;19918;-20
2022/12/02 04:51:09;;;;;;;;;;;13.50;81.00;;;;;;4591326;19;19970;-21
2022/12/02 04:52:40;;;;;;;;;;;13.50;80.70;;;;;;4591087;19;20276;-22
2022/12/02 04:54:11;;;;;;;;;;;13.60;80.60;;;;;;4590497;19;19931;-21
2022/12/02 04:55:45;;;;;;;;;;;13.60;80.40;;;;;;4590974;19;19927;-21
2022/12/02 04:57:16;;;;;;;;;;;13.60;80.50;;;;;;4591442;19;19926;-21
2022/12/02 04:58:47;;;;;;;;;;;13.60;80.40;;;;;;4590828;19;19919;-21
2022/12/02 05:00:20;;;;;;;;;;;13.60;80.50;;;;;;4591373;19;19939;-21
2022/12/02 05:01:50;;;;;;;;;;;13.70;80.90;;;;;;4592347;19;19918;-23
2022/12/02 05:03:22;;;;;;;;;;;13.70;80.30;;;;;;4590218;19;19936;-22
2022/12/02 05:04:53;;;;;;;;;;;13.70;80.40;;;;;;4591629;19;20211;-23
2022/12/02 05:06:24;;;;;;;;;;;13.60;80.20;;;;;;4589859;19;19925;-21
2022/12/02 05:07:55;;;;;;;;;;;13.60;80.40;;;;;;4588943;19;19942;-22
2022/12/02 05:09:26;;;;;;;;;;;13.70;80.20;;;;;;4591152;19;19918;-23
2022/12/02 05:10:57;;;;;;;;;;;13.80;80.30;;;;;;4589870;19;19923;-21
2022/12/02 05:12:28;;;;;;;;;;;13.70;80.00;;;;;;4589970;19;19942;-20
2022/12/02 05:13:59;;;;;;;;;;;13.60;80.10;;;;;;4590070;19;19915;-21
2022/12/02 05:15:30;;;;;;;;;;;13.60;80.30;;;;;;4592104;19;19939;-21
2022/12/02 05:17:01;;;;;;;;;;;13.60;80.30;;;;;;4589927;19;19929;-23
2022/12/02 05:18:32;;;;;;;;;;;13.60;80.20;;;;;;4590972;19;20011;-20
2022/12/02 05:20:03;;;;;;;;;;;13.70;80.50;;;;;;4591710;19;19914;-21
2022/12/02 05:21:35;;;;;;;;;;;13.70;80.40;;;;;;4591349;19;20241;-20
2022/12/02 05:23:07;;;;;;;;;;;13.60;80.30;;;;;;4591471;19;19930;-22
2022/12/02 05:24:37;;;;;;;;;;;13.80;80.20;;;;;;4591661;19;19978;-23
2022/12/02 05:26:08;;;;;;;;;;;13.70;80.50;;;;;;4590880;19;19938;-20
2022/12/02 05:27:41;;;;;;;;;;;13.60;80.30;;;;;;4589798;19;20433;-21
2022/12/02 05:29:12;;;;;;;;;;;13.60;81.20;;;;;;4590348;19;19915;-20
2022/12/02 05:30:43;;;;;;;;;;;13.50;81.10;;;;;;4590482;19;19958;-21
2022/12/02 05:32:15;;;;;;;;;;;13.50;80.70;;;;;;4590274;19;19922;-20
2022/12/02 05:33:47;;;;;;;;;;;13.50;80.60;;;;;;4591838;19;19978;-21
2022/12/02 05:35:19;;;;;;;;;;;13.40;80.60;;;;;;4592890;19;19945;-21
2022/12/02 05:36:51;;;;;;;;;;;13.40;80.60;;;;;;4592928;19;19936;-21
2022/12/02 05:38:21;;;;;;;;;;;13.40;80.60;;;;;;4590150;19;19919;-21
2022/12/02 05:39:52;;;;;;;;;;;13.40;80.50;;;;;;4590735;19;19919;-21
2022/12/02 05:41:24;;;;;;;;;;;13.40;80.10;;;;;;4590116;19;19910;-22
2022/12/02 05:42:55;;;;;;;;;;;13.40;80.30;;;;;;4590328;19;19929;-20
2022/12/02 05:44:26;;;;;;;;;;;13.40;80.20;;;;;;4589558;19;19952;-22
2022/12/02 05:45:58;;;;;;;;;;;13.40;80.20;;;;;;4589434;19;19926;-20
2022/12/02 05:47:29;;;;;;;;;;;13.40;80.50;;;;;;4592709;19;19952;-24
2022/12/02 05:49:01;;;;;;;;;;;13.40;80.40;;;;;;4589372;19;19915;-20
2022/12/02 05:50:32;;;;;;;;;;;13.40;80.50;;;;;;4591670;19;20247;-21
2022/12/02 05:52:06;;;;;;;;;;;13.40;80.40;;;;;;4592197;19;19918;-21
2022/12/02 05:53:37;;;;;;;;;;;13.40;80.40;;;;;;4589945;19;19955;-21
2022/12/02 05:55:15;;;;;;;;;;;13.40;80.50;;;;;;4591281;19;20376;-21
2022/12/02 05:56:46;;;;;;;;;;;13.30;80.60;;;;;;4591639;19;19966;-21
2022/12/02 05:58:17;;;;;;;;;;;13.30;80.40;;;;;;4591256;19;19914;-20
2022/12/02 05:59:49;;;;;;;;;;;13.30;80.40;;;;;;4592206;19;20272;-21
2022/12/02 06:01:37;;;;;;;;;;;13.30;80.10;;;;;;4591552;19;20296;-21
2022/12/02 06:03:10;;;;;;;;;;;13.30;80.10;;;;;;4587805;19;19911;-22
2022/12/02 06:04:42;;;;;;;;;;;13.30;80.20;;;;;;4591481;19;19923;-21
2022/12/02 06:06:14;;;;;;;;;;;13.30;80.40;;;;;;4592729;19;19915;-21
2022/12/02 06:07:46;;;;;;;;;;;13.30;80.50;;;;;;4590153;19;19919;-21
2022/12/02 06:09:18;;;;;;;;;;;13.30;80.60;;;;;;4590011;19;19923;-21
2022/12/02 06:10:53;;;;;;;;;;;13.30;81.00;;;;;;4591662;19;20277;-20
2022/12/02 06:12:24;;;;;;;;;;;13.30;80.40;;;;;;4590766;19;20427;-21
2022/12/02 06:13:56;;;;;;;;;;;13.30;80.40;;;;;;4590863;19;19982;-20
2022/12/02 06:15:29;;;;;;;;;;;13.30;80.30;;;;;;4590389;19;20356;-21
2022/12/02 06:17:01;;;;;;;;;;;13.30;80.00;;;;;;4588994;19;20384;-21
2022/12/02 06:18:33;;;;;;;;;;;13.30;80.10;;;;;;4590247;19;19919;-20
2022/12/02 06:20:05;;;;;;;;;;;13.30;80.10;;;;;;4589988;19;19922;-22
2022/12/02 06:21:36;;;;;;;;;;;13.30;80.00;;;;;;4590266;19;19923;-21
2022/12/02 06:23:09;;;;;;;;;;;13.30;79.80;;;;;;4590169;19;20275;-20
2022/12/02 06:24:40;;;;;;;;;;;13.20;79.80;;;;;;4591901;19;19971;-21
2022/12/02 06:26:14;;;;;;;;;;;13.20;79.60;;;;;;4590264;19;19942;-21
2022/12/02 06:27:46;;;;;;;;;;;13.20;79.40;;;;;;4592189;19;19939;-24
2022/12/02 06:29:17;;;;;;;;;;;13.30;79.30;;;;;;4587584;19;19943;-21
2022/12/02 06:30:48;;;;;;;;;;;13.30;79.30;;;;;;4589405;19;20288;-21
2022/12/02 06:32:20;;;;;;;;;;;13.30;79.00;;;;;;4591791;19;19918;-22
2022/12/02 06:33:52;;;;;;;;;;;13.30;79.10;;;;;;4589575;19;19929;-20
2022/12/02 06:35:24;;;;;;;;;;;13.30;78.80;;;;;;4590479;19;20487;-21
2022/12/02 06:36:58;;;;;;;;;;;13.30;78.80;;;;;;4592103;19;19926;-21
2022/12/02 06:38:34;;;;;;;;;;;13.30;79.00;;;;;;4589299;19;20325;-21
2022/12/02 06:40:15;;;;;;;;;;;13.30;79.00;;;;;;4591287;19;19923;-21
2022/12/02 06:41:47;;;;;;;;;;;13.30;78.90;;;;;;4593078;19;19952;-21
2022/12/02 06:43:24;;;;;;;;;;;13.30;78.70;;;;;;4594318;19;19930;-21
2022/12/02 06:45:06;;;;;;;;;;;13.30;78.60;;;;;;4595098;19;19926;-21
2022/12/02 06:46:38;;;;;;;;;;;13.30;78.60;;;;;;4594766;19;19942;-21
2022/12/02 06:48:29;;;;;;;;;;;13.30;78.80;;;;;;4594865;19;20365;-21
2022/12/02 06:50:03;;;;;;;;;;;13.30;79.00;;;;;;4596293;19;19926;-21
2022/12/02 06:51:35;;;;;;;;;;;13.30;78.80;;;;;;4595022;19;19919;-21
2022/12/02 06:53:11;;;;;;;;;;;13.30;78.60;;;;;;4596282;19;19915;-21
2022/12/02 06:54:43;;;;;;;;;;;13.30;78.70;;;;;;4590765;19;19982;-24
2022/12/02 06:56:15;;;;;;;;;;;13.30;78.50;;;;;;4594118;19;19978;-21
2022/12/02 06:57:46;;;;;;;;;;;13.30;78.60;;;;;;4595889;19;19915;-21
2022/12/02 06:59:19;;;;;;;;;;;13.30;78.70;;;;;;4593701;19;19927;-21
2022/12/02 07:00:52;;;;;;;;;;;13.20;78.60;;;;;;4593351;19;19953;-20
2022/12/02 07:02:30;;;;;;;;;;;13.20;78.60;;;;;;4593984;19;19915;-20
2022/12/02 07:04:02;;;;;;;;;;;13.20;78.50;;;;;;4592659;19;19915;-21
2022/12/02 07:05:33;;;;;;;;;;;13.20;79.10;;;;;;4593529;19;20440;-21
2022/12/02 07:07:10;;;;;;;;;;;13.30;78.70;;;;;;4594211;19;20326;-21
2022/12/02 07:08:41;;;;;;;;;;;13.30;78.70;;;;;;4592511;19;19915;-21
2022/12/02 07:10:15;;;;;;;;;;;13.30;78.80;;;;;;4593807;19;19930;-20
2022/12/02 07:11:50;;;;;;;;;;;13.30;78.60;;;;;;4593619;19;19922;-21
2022/12/02 07:13:21;;;;;;;;;;;13.20;78.40;;;;;;4592181;19;19930;-21
2022/12/02 07:14:55;;;;;;;;;;;13.20;78.70;;;;;;4592408;19;19990;-23
2022/12/02 07:16:32;;;;;;;;;;;13.20;78.70;;;;;;4593375;19;19930;-21
2022/12/02 07:18:09;;;;;;;;;;;13.20;78.70;;;;;;4592639;19;19915;-21
2022/12/02 07:19:42;;;;;;;;;;;13.20;78.80;;;;;;4593305;19;19937;-22
2022/12/02 07:21:14;;;;;;;;;;;13.10;78.70;;;;;;4592482;19;19919;-21
2022/12/02 07:22:46;;;;;;;;;;;13.10;78.60;;;;;;4592919;19;19918;-21
2022/12/02 07:24:18;;;;;;;;;;;13.10;78.40;;;;;;4592307;19;20255;-21
2022/12/02 07:25:53;;;;;;;;;;;13.10;78.50;;;;;;4593157;19;19923;-20
2022/12/02 07:27:25;;;;;;;;;;;13.10;78.60;;;;;;4593632;19;19929;-21
2022/12/02 07:28:57;;;;;;;;;;;13.10;78.60;;;;;;4594342;19;20250;-22
2022/12/02 07:30:32;;;;;;;;;;;13.10;78.80;;;;;;4592115;19;19931;-21
2022/12/02 07:32:03;;;;;;;;;;;13.10;78.70;;;;;;4592649;19;19945;-21
2022/12/02 07:33:35;;;;;;;;;;;13.10;78.80;;;;;;4592835;19;19925;-21
2022/12/02 07:35:07;;;;;;;;;;;13.10;78.90;;;;;;4592930;19;19930;-22
2022/12/02 07:36:41;;;;;;;;;;;13.10;78.70;;;;;;4592794;19;20348;-22
2022/12/02 07:38:11;;;;;;;;;;;13.10;78.70;;;;;;4589859;19;19990;-23
2022/12/02 07:39:43;;;;;;;;;;;13.10;78.80;;;;;;4592967;19;20130;-22
2022/12/02 07:41:14;;;;;;;;;;;13.10;79.00;;;;;;4593002;19;19919;-22
2022/12/02 07:42:45;;;;;;;;;;;13.10;79.10;;;;;;4591621;19;19963;-22
2022/12/02 07:44:17;;;;;;;;;;;13.10;79.10;;;;;;4593474;19;19926;-21
2022/12/02 07:45:48;;;;;;;;;;;13.10;79.20;;;;;;4591403;19;19978;-23
2022/12/02 07:47:19;;;;;;;;;;;13.10;79.30;;;;;;4593309;19;19921;-23
2022/12/02 07:48:50;;;;;;;;;;;13.10;79.30;;;;;;4593954;19;19959;-23
2022/12/02 07:50:22;;;;;;;;;;;13.10;79.50;;;;;;4594751;19;20238;-23
2022/12/02 07:51:53;;;;;;;;;;;13.10;79.60;;;;;;4593994;19;19936;-22
2022/12/02 07:53:24;;;;;;;;;;;13.10;79.50;;;;;;4592766;19;20353;-23
2022/12/02 07:54:56;;;;;;;;;;;13.10;79.40;;;;;;4593304;19;19919;-22
2022/12/02 07:56:27;;;;;;;;;;;13.10;79.50;;;;;;4594263;19;20265;-22
2022/12/02 07:57:59;;;;;;;;;;;13.10;79.30;;;;;;4595433;19;19919;-23
2022/12/02 07:59:30;;;;;;;;;;;13.10;79.20;;;;;;4592816;19;19919;-22
2022/12/02 08:01:01;;;;;;;;;;;13.10;79.30;;;;;;4593910;19;20275;-23
2022/12/02 08:02:33;;;;;;;;;;;13.10;79.50;;;;;;4594526;19;19938;-22
2022/12/02 08:04:04;;;;;;;;;;;13.10;79.40;;;;;;4592191;19;19911;-20
2022/12/02 08:05:35;;;;;;;;;;;13.00;79.60;;;;;;4593947;19;19929;-20
2022/12/02 08:07:07;;;;;;;;;;;13.10;79.30;;;;;;4595489;19;20297;-20
2022/12/02 08:08:38;;;;;;;;;;;13.00;79.20;;;;;;4591757;19;19919;-20
2022/12/02 08:10:09;;;;;;;;;;;13.00;79.20;;;;;;4593246;19;19998;-21
2022/12/02 08:11:41;;;;;;;;;;;13.00;79.20;;;;;;4594626;19;19922;-21
2022/12/02 08:13:12;;;;;;;;;;;13.00;78.90;;;;;;4592307;19;19919;-20
2022/12/02 08:14:43;;;;;;;;;;;13.00;78.90;;;;;;4592466;19;19930;-20
2022/12/02 08:16:14;;;;;;;;;;;13.00;79.40;;;;;;4594591;19;19923;-21
2022/12/02 08:17:45;;;;;;;;;;;13.00;79.30;;;;;;4593267;19;19914;-21
2022/12/02 08:19:17;;;;;;;;;;;13.00;78.90;;;;;;4591528;19;19919;-20
2022/12/02 08:20:48;;;;;;;;;;;13.00;78.90;;;;;;4594900;19;19922;-21
2022/12/02 08:22:19;;;;;;;;;;;13.00;79.10;;;;;;4594652;19;19975;-21
2022/12/02 08:23:50;;;;;;;;;;;13.00;78.90;;;;;;4592853;19;19919;-24
2022/12/02 08:25:21;;;;;;;;;;;13.00;78.90;;;;;;4594841;19;19922;-22
2022/12/02 08:26:52;;;;;;;;;;;13.00;78.90;;;;;;4593545;19;19926;-20
2022/12/02 08:28:23;;;;;;;;;;;13.00;79.30;;;;;;4591676;19;19918;-20
2022/12/02 08:29:55;;;;;;;;;;;13.00;79.30;;;;;;4594715;19;19979;-21
2022/12/02 08:31:26;;;;;;;;;;;13.00;79.10;;;;;;4594314;19;20230;-20
2022/12/02 08:32:57;;;;;;;;;;;13.00;78.70;;;;;;4590819;19;19927;-20
2022/12/02 08:34:29;;;;;;;;;;;13.00;79.00;;;;;;4594519;19;19942;-20
2022/12/02 08:36:01;;;;;;;;;;;13.00;78.60;;;;;;4594821;19;19956;-20
2022/12/02 08:37:32;;;;;;;;;;;13.00;78.70;;;;;;4591467;19;19935;-21
2022/12/02 08:39:07;;;;;;;;;;;13.00;78.80;;;;;;4592977;19;19922;-20
2022/12/02 08:40:38;;;;;;;;;;;13.00;78.90;;;;;;4592041;19;20264;-21
2022/12/02 08:42:09;;;;;;;;;;;13.00;78.80;;;;;;4592024;19;19918;-22
2022/12/02 08:43:40;;;;;;;;;;;13.00;78.70;;;;;;4594436;19;19914;-20
2022/12/02 08:45:11;;;;;;;;;;;13.00;78.80;;;;;;4593816;19;19919;-20
2022/12/02 08:46:42;;;;;;;;;;;13.00;78.90;;;;;;4592517;19;20315;-21
2022/12/02 08:48:14;;;;;;;;;;;13.00;79.10;;;;;;4593549;19;19915;-23
2022/12/02 08:49:45;;;;;;;;;;;13.00;79.10;;;;;;4593604;19;19911;-20
2022/12/02 08:51:16;;;;;;;;;;;13.00;79.00;;;;;;4591960;19;19911;-20
2022/12/02 08:52:47;;;;;;;;;;;13.00;78.90;;;;;;4593876;19;19910;-23
2022/12/02 08:54:18;;;;;;;;;;;13.00;79.00;;;;;;4592252;19;19918;-20
2022/12/02 08:55:50;;;;;;;;;;;13.00;78.80;;;;;;4591696;19;20257;-20
2022/12/02 08:57:21;;;;;;;;;;;13.00;78.90;;;;;;4592027;19;19943;-20